createdAt,value
2022-10-24T03:47:38.621Z,17.80
2022-10-24T03:50:05.987Z,17.80
2022-10-24T03:52:33.041Z,17.80
2022-10-24T03:55:00.040Z,17.90
2022-10-24T03:57:27.046Z,17.90
2022-10-24T03:59:54.034Z,17.90
2022-10-24T04:02:21.037Z,17.80
2022-10-24T04:04:47.965Z,17.80
2022-10-24T04:07:14.887Z,17.90
2022-10-24T04:09:41.908Z,17.90
2022-10-24T04:12:09.083Z,17.90
2022-10-24T04:14:36.085Z,17.90
2022-10-24T04:19:31.555Z,17.70
2022-10-24T04:21:58.622Z,17.70
2022-10-24T04:24:25.613Z,17.80
2022-10-24T04:26:52.610Z,17.80
2022-10-24T04:29:19.566Z,17.80
2022-10-24T04:31:46.562Z,17.90
2022-10-24T04:34:13.599Z,17.80
2022-10-24T04:36:40.539Z,17.80
2022-10-24T04:39:07.622Z,17.80
2022-10-24T04:41:34.859Z,17.80
2022-10-24T04:44:01.869Z,17.80
2022-10-24T04:46:28.845Z,17.90
2022-10-24T04:48:55.887Z,17.80
2022-10-24T04:51:22.865Z,17.80
2022-10-24T04:53:50.315Z,17.80
2022-10-24T04:56:17.684Z,17.80
2022-10-24T04:58:44.722Z,17.80
2022-10-24T05:01:11.989Z,17.80
2022-10-24T05:03:38.999Z,17.80
2022-10-24T05:06:06.032Z,17.80
2022-10-24T05:08:33.048Z,17.80
2022-10-24T05:11:00.122Z,17.80
2022-10-24T05:13:27.125Z,17.80
2022-10-24T05:15:54.049Z,17.80
2022-10-24T05:18:21.048Z,17.80
2022-10-24T05:20:48.094Z,17.80
2022-10-24T05:23:15.100Z,17.70
2022-10-24T05:25:42.050Z,17.80
2022-10-24T05:28:09.017Z,17.70
2022-10-24T05:30:36.029Z,17.70
2022-10-24T05:33:02.982Z,17.70
2022-10-24T05:35:29.925Z,17.70
2022-10-24T05:37:56.849Z,17.70
2022-10-24T05:40:23.765Z,17.70
2022-10-24T05:42:52.192Z,17.70
2022-10-24T05:45:19.217Z,17.70
2022-10-24T05:47:46.829Z,17.70
2022-10-24T05:50:14.185Z,17.70
2022-10-24T05:52:46.135Z,17.70
2022-10-24T05:55:16.930Z,17.70
2022-10-24T05:57:45.781Z,17.60
2022-10-24T06:00:14.887Z,17.60
2022-10-24T06:02:42.201Z,17.60
2022-10-24T06:05:10.027Z,17.60
2022-10-24T06:07:37.266Z,17.60
2022-10-24T06:10:05.829Z,17.60
2022-10-24T06:12:33.041Z,17.60
2022-10-24T06:15:00.422Z,17.60
2022-10-24T06:17:27.451Z,17.60
2022-10-24T06:19:54.438Z,17.70
2022-10-24T06:22:24.592Z,17.60
2022-10-24T06:24:51.589Z,17.60
2022-10-24T06:27:18.583Z,17.60
2022-10-24T06:29:45.643Z,17.60
2022-10-24T06:32:12.574Z,17.60
2022-10-24T06:34:39.629Z,17.60
2022-10-24T06:37:06.558Z,17.60
2022-10-24T06:39:33.581Z,17.60
2022-10-24T06:42:01.161Z,17.50
2022-10-24T06:44:28.126Z,17.50
2022-10-24T06:46:55.115Z,17.40
2022-10-24T06:49:22.144Z,17.40
2022-10-24T06:51:49.206Z,17.40
2022-10-24T06:54:16.631Z,17.40
2022-10-24T06:56:43.589Z,17.40
2022-10-24T06:59:11.643Z,17.50
2022-10-24T07:01:38.812Z,17.40
2022-10-24T07:04:05.953Z,17.40
2022-10-24T07:06:33.169Z,17.40
2022-10-24T07:09:00.913Z,17.40
2022-10-24T07:11:28.409Z,17.50
2022-10-24T07:13:58.289Z,17.50
2022-10-24T07:16:28.282Z,17.50
2022-10-24T07:18:55.750Z,17.50
2022-10-24T07:21:24.036Z,17.50
2022-10-24T07:23:51.856Z,17.50
2022-10-24T07:26:19.619Z,17.50
2022-10-24T07:28:47.157Z,17.50
2022-10-24T07:31:17.785Z,17.50
2022-10-24T07:33:44.706Z,17.50
2022-10-24T07:36:15.709Z,17.50
2022-10-24T07:38:42.639Z,17.60
2022-10-24T07:41:09.639Z,17.60
2022-10-24T07:43:36.747Z,17.60
2022-10-24T07:46:11.030Z,17.60
2022-10-24T07:48:38.787Z,17.60
2022-10-24T07:51:07.021Z,17.70
2022-10-24T07:53:33.990Z,17.70
2022-10-24T07:56:01.325Z,17.80
2022-10-24T07:58:28.981Z,17.80
2022-10-24T08:00:55.966Z,17.80
2022-10-24T08:03:22.906Z,17.80
2022-10-24T08:05:50.491Z,17.80
2022-10-24T08:08:34.831Z,17.80
2022-10-24T08:11:10.039Z,17.70
2022-10-24T08:13:37.481Z,17.60
2022-10-24T08:16:07.999Z,17.60
2022-10-24T08:18:38.877Z,17.70
2022-10-24T08:21:11.091Z,17.70
2022-10-24T08:23:39.533Z,17.70
2022-10-24T08:26:10.307Z,17.70
2022-10-24T08:28:37.510Z,17.70
2022-10-24T08:31:08.139Z,17.80
2022-10-24T08:33:35.394Z,17.80
2022-10-24T08:36:04.266Z,17.80
2022-10-24T08:38:31.309Z,17.80
2022-10-24T08:40:58.442Z,17.80
2022-10-24T08:43:25.732Z,17.80
2022-10-24T08:46:10.535Z,17.80
2022-10-24T08:49:06.598Z,17.80
2022-10-24T08:51:38.606Z,17.80
2022-10-24T08:54:07.894Z,17.80
2022-10-24T08:56:34.910Z,17.80
2022-10-24T08:59:02.598Z,17.80
2022-10-24T09:01:32.789Z,17.80
2022-10-24T09:04:01.665Z,17.80
2022-10-24T09:06:29.509Z,17.80
2022-10-24T09:08:56.449Z,17.90
2022-10-24T09:11:41.898Z,17.90
2022-10-24T09:14:16.381Z,17.90
2022-10-24T09:16:44.418Z,17.90
2022-10-24T09:19:14.642Z,17.90
2022-10-24T09:21:42.613Z,17.90
2022-10-24T09:24:24.338Z,17.80
2022-10-24T09:26:51.349Z,17.80
2022-10-24T09:29:18.384Z,17.80
2022-10-24T09:31:45.422Z,17.80
2022-10-24T09:34:12.401Z,17.80
2022-10-24T09:36:39.734Z,17.80
2022-10-24T09:39:22.787Z,17.80
2022-10-24T09:41:49.881Z,17.80
2022-10-24T09:44:31.982Z,17.80
2022-10-24T09:46:59.006Z,17.80
2022-10-24T09:49:31.695Z,17.70
2022-10-24T09:52:01.961Z,17.70
2022-10-24T09:54:30.726Z,17.70
2022-10-24T09:57:03.496Z,17.60
2022-10-24T09:59:30.825Z,17.60
2022-10-24T10:02:19.484Z,17.60
2022-10-24T10:05:04.778Z,17.70
2022-10-24T10:07:31.743Z,17.70
2022-10-24T10:10:00.352Z,17.80
2022-10-24T10:12:37.926Z,17.80
2022-10-24T10:15:26.775Z,17.80
2022-10-24T10:17:58.302Z,17.80
2022-10-24T10:20:41.882Z,17.80
2022-10-24T10:23:24.986Z,17.80
2022-10-24T10:26:21.380Z,17.80
2022-10-24T10:28:48.317Z,17.80
2022-10-24T10:31:16.633Z,17.70
2022-10-24T10:34:02.161Z,17.60
2022-10-24T10:36:34.573Z,17.40
2022-10-24T10:39:13.359Z,17.20
2022-10-24T10:41:47.680Z,17.10
2022-10-24T10:44:20.788Z,17.10
2022-10-24T10:46:59.780Z,17.10
2022-10-24T10:49:29.496Z,16.90
2022-10-24T10:51:58.295Z,17.00
2022-10-24T10:54:25.257Z,17.00
2022-10-24T10:56:54.118Z,17.00
2022-10-24T10:59:29.542Z,17.10
2022-10-24T11:02:00.192Z,17.20
2022-10-24T11:04:27.343Z,17.30
2022-10-24T11:07:10.251Z,17.30
2022-10-24T11:09:41.063Z,17.30
2022-10-24T11:12:15.214Z,17.30
2022-10-24T11:14:45.058Z,17.40
2022-10-24T11:17:18.241Z,17.50
2022-10-24T11:19:54.096Z,17.50
2022-10-24T11:22:23.533Z,17.50
2022-10-24T11:24:57.658Z,17.60
2022-10-24T11:27:28.186Z,17.60
2022-10-24T11:30:04.464Z,17.70
2022-10-24T11:32:34.670Z,17.70
2022-10-24T11:35:06.031Z,17.70
2022-10-24T11:37:34.462Z,17.70
2022-10-24T11:40:04.998Z,17.80
2022-10-24T11:42:35.023Z,17.80
2022-10-24T11:45:16.211Z,17.80
2022-10-24T11:47:47.737Z,17.70
2022-10-24T11:50:32.794Z,17.70
2022-10-24T11:53:14.732Z,17.70
2022-10-24T11:55:43.729Z,17.70
2022-10-24T11:58:13.961Z,17.80
2022-10-24T12:00:59.168Z,17.80
2022-10-24T12:03:44.758Z,17.80
2022-10-24T12:06:35.493Z,17.80
2022-10-24T12:09:05.440Z,17.80
2022-10-24T12:11:35.222Z,17.70
2022-10-24T12:14:20.798Z,17.80
2022-10-24T12:16:50.561Z,17.80
2022-10-24T12:19:19.433Z,17.80
2022-10-24T12:21:53.726Z,17.80
2022-10-24T12:24:23.722Z,17.80
2022-10-24T12:26:54.848Z,17.90
2022-10-24T12:29:23.998Z,17.90
2022-10-24T12:31:51.522Z,17.90
2022-10-24T12:34:19.019Z,17.90
2022-10-24T12:37:04.109Z,17.90
2022-10-24T12:39:32.427Z,17.80
2022-10-24T12:41:59.554Z,17.70
2022-10-24T12:44:32.250Z,17.80
2022-10-24T12:46:59.697Z,17.70
2022-10-24T12:49:30.850Z,17.70
2022-10-24T12:51:58.733Z,17.70
2022-10-24T12:54:38.893Z,17.70
2022-10-24T12:57:05.806Z,17.60
2022-10-24T12:59:33.925Z,17.60
2022-10-24T13:02:12.904Z,17.60
2022-10-24T13:07:27.109Z,17.70
2022-10-24T13:09:57.105Z,17.70
2022-10-24T13:12:29.940Z,17.80
2022-10-24T13:14:59.705Z,17.80
2022-10-24T13:17:29.379Z,17.80
2022-10-24T13:20:15.210Z,17.80
2022-10-24T13:22:42.791Z,17.80
2022-10-24T13:25:39.078Z,17.80
2022-10-24T13:28:22.327Z,17.80
2022-10-24T13:30:50.739Z,17.80
2022-10-24T13:33:33.052Z,17.90
2022-10-24T13:36:08.909Z,17.80
2022-10-24T13:38:41.785Z,17.80
2022-10-24T13:41:10.444Z,17.90
2022-10-24T13:43:39.586Z,17.90
2022-10-24T13:46:12.915Z,17.90
2022-10-24T13:48:45.765Z,17.90
2022-10-24T13:51:25.377Z,17.90
2022-10-24T13:53:54.201Z,17.90
2022-10-24T13:56:21.169Z,17.90
2022-10-24T13:58:49.021Z,17.90
2022-10-24T14:01:16.160Z,17.90
2022-10-24T14:03:43.976Z,18.00
2022-10-24T14:06:11.405Z,17.90
2022-10-24T14:08:53.405Z,17.90
2022-10-24T14:11:30.571Z,18.00
2022-10-24T14:14:02.613Z,18.00
2022-10-24T14:16:34.633Z,18.00
2022-10-24T14:19:13.598Z,18.00
2022-10-24T14:21:45.826Z,18.00
2022-10-24T14:24:17.464Z,18.00
2022-10-24T14:26:45.689Z,18.00
2022-10-24T14:29:27.704Z,18.00
2022-10-24T14:32:01.811Z,18.00
2022-10-24T14:34:33.772Z,18.10
2022-10-24T14:37:05.862Z,18.00
2022-10-24T14:39:32.958Z,18.10
2022-10-24T14:42:01.542Z,18.10
2022-10-24T14:44:28.813Z,18.10
2022-10-24T14:47:01.671Z,18.10
2022-10-24T14:49:33.792Z,18.10
2022-10-24T14:52:02.187Z,18.20
2022-10-24T14:54:33.040Z,18.20
2022-10-24T14:57:00.931Z,18.20
2022-10-24T14:59:28.922Z,18.20
2022-10-24T15:02:01.305Z,18.20
2022-10-24T15:04:29.974Z,18.20
2022-10-24T15:06:57.001Z,18.20
2022-10-24T15:09:23.997Z,18.10
2022-10-24T15:12:01.308Z,18.20
2022-10-24T15:14:31.043Z,18.20
2022-10-24T15:17:00.243Z,18.10
2022-10-24T15:19:27.330Z,18.10
2022-10-24T15:21:55.238Z,18.10
2022-10-24T15:24:23.698Z,18.10
2022-10-24T15:26:51.361Z,18.10
2022-10-24T15:29:22.517Z,18.10
2022-10-24T15:31:50.440Z,18.10
2022-10-24T15:34:18.385Z,18.10
2022-10-24T15:36:46.457Z,18.10
2022-10-24T15:39:15.114Z,18.10
2022-10-24T15:41:42.188Z,18.10
2022-10-24T15:44:15.037Z,18.10
2022-10-24T15:46:41.985Z,18.10
2022-10-24T15:49:08.992Z,18.10
2022-10-24T15:51:37.127Z,18.00
2022-10-24T15:54:04.126Z,18.00
2022-10-24T15:56:31.047Z,18.00
2022-10-24T15:58:57.974Z,18.00
2022-10-24T16:01:29.941Z,18.00
2022-10-24T16:03:58.053Z,18.00
2022-10-24T16:06:25.614Z,18.00
2022-10-24T16:08:52.874Z,18.00
2022-10-24T16:11:19.826Z,17.90
2022-10-24T16:13:47.005Z,17.90
2022-10-24T16:16:14.085Z,17.90
2022-10-24T16:18:41.082Z,17.90
2022-10-24T16:21:08.119Z,17.90
2022-10-24T16:23:35.160Z,17.90
2022-10-24T16:26:02.162Z,17.80
2022-10-24T16:28:29.146Z,17.80
2022-10-24T16:30:56.128Z,17.80
2022-10-24T16:33:23.164Z,17.80
2022-10-24T16:35:50.687Z,17.70
2022-10-24T16:38:18.080Z,17.60
2022-10-24T16:40:46.078Z,17.60
2022-10-24T16:43:13.978Z,17.60
2022-10-24T16:45:41.099Z,17.60
2022-10-24T16:48:08.266Z,17.50
2022-10-24T16:50:35.461Z,17.50
2022-10-24T16:53:03.929Z,17.50
2022-10-24T16:55:31.547Z,17.50
2022-10-24T16:57:58.869Z,17.50
2022-10-24T17:00:26.171Z,17.50
2022-10-24T17:02:54.069Z,17.50
2022-10-24T17:05:23.345Z,17.50
2022-10-24T17:07:50.422Z,17.40
2022-10-24T17:10:20.730Z,17.40
2022-10-24T17:12:50.850Z,17.40
2022-10-24T17:15:21.120Z,17.30
2022-10-24T17:17:49.779Z,17.30
2022-10-24T17:20:17.365Z,17.30
2022-10-24T17:22:45.465Z,17.20
2022-10-24T17:25:16.281Z,17.20
2022-10-24T17:27:43.432Z,17.20
2022-10-24T17:30:14.604Z,17.10
2022-10-24T17:32:41.686Z,17.10
2022-10-24T17:35:10.367Z,17.10
2022-10-24T17:37:49.505Z,17.10
2022-10-24T17:40:21.390Z,17.10
2022-10-24T17:42:48.757Z,17.00
2022-10-24T17:45:20.187Z,17.00
2022-10-24T17:47:47.421Z,17.00
2022-10-24T17:50:14.718Z,16.90
2022-10-24T17:52:43.500Z,16.90
2022-10-24T17:55:22.500Z,16.90
2022-10-24T17:58:04.741Z,16.90
2022-10-24T18:00:31.693Z,16.80
2022-10-24T18:02:58.870Z,16.80
2022-10-24T18:05:25.848Z,16.80
2022-10-24T18:07:53.498Z,16.80
2022-10-24T18:10:21.118Z,16.80
2022-10-24T18:12:48.088Z,16.80
2022-10-24T18:15:16.671Z,16.80
2022-10-24T18:17:44.352Z,16.80
2022-10-24T18:20:11.966Z,16.70
2022-10-24T18:22:38.890Z,16.70
2022-10-24T18:25:06.783Z,16.70
2022-10-24T18:27:34.218Z,16.70
2022-10-24T18:30:01.621Z,16.70
2022-10-24T18:32:28.857Z,16.60
2022-10-24T18:34:55.982Z,16.60
2022-10-24T18:37:22.930Z,16.60
2022-10-24T18:39:50.138Z,16.60
2022-10-24T18:42:17.059Z,16.60
2022-10-24T18:44:48.732Z,16.60
2022-10-24T18:47:20.800Z,16.50
2022-10-24T18:49:50.633Z,16.50
2022-10-24T18:52:17.567Z,16.40
2022-10-24T18:54:47.289Z,16.40
2022-10-24T18:57:23.203Z,16.40
2022-10-24T18:59:50.467Z,16.40
2022-10-24T19:02:30.932Z,16.30
2022-10-24T19:05:18.335Z,16.30
2022-10-24T19:07:46.301Z,16.30
2022-10-24T19:10:19.288Z,16.30
2022-10-24T19:12:46.710Z,16.20
2022-10-24T19:15:14.349Z,16.20
2022-10-24T19:17:41.657Z,16.20
2022-10-24T19:20:14.004Z,16.20
2022-10-24T19:22:40.930Z,16.20
2022-10-24T19:25:08.090Z,16.20
2022-10-24T19:27:35.088Z,16.20
2022-10-24T19:30:02.018Z,16.20
2022-10-24T19:32:28.942Z,16.20
2022-10-24T19:34:56.759Z,16.20
2022-10-24T19:37:23.951Z,16.20
2022-10-24T19:39:51.137Z,16.20
2022-10-24T19:42:18.102Z,16.20
2022-10-24T19:47:15.752Z,16.10
2022-10-24T19:49:42.717Z,16.10
2022-10-24T19:52:09.664Z,16.10
2022-10-24T19:54:36.716Z,16.00
2022-10-24T19:57:03.654Z,16.00
2022-10-24T19:59:33.936Z,16.00
2022-10-24T20:02:00.971Z,16.00
2022-10-24T20:04:28.822Z,16.00
2022-10-24T20:06:55.746Z,16.00
2022-10-24T20:09:22.685Z,16.10
2022-10-24T20:11:49.685Z,16.00
2022-10-24T20:14:16.698Z,16.00
2022-10-24T20:16:43.677Z,16.10
2022-10-24T20:19:10.600Z,16.00
2022-10-24T20:21:37.756Z,16.00
2022-10-24T20:24:04.924Z,15.90
2022-10-24T20:26:31.962Z,15.90
2022-10-24T20:28:59.058Z,15.90
2022-10-24T20:31:27.618Z,15.90
2022-10-24T20:33:56.769Z,15.80
2022-10-24T20:36:23.762Z,15.80
2022-10-24T20:38:50.769Z,15.80
2022-10-24T20:41:17.806Z,15.70
2022-10-24T20:43:44.894Z,15.60
2022-10-24T20:46:11.930Z,15.40
2022-10-24T20:48:38.874Z,15.40
2022-10-24T20:51:07.234Z,15.40
2022-10-24T20:53:34.259Z,15.30
2022-10-24T20:56:08.482Z,15.30
2022-10-24T20:58:39.290Z,15.30
2022-10-24T21:01:12.028Z,15.30
2022-10-24T21:03:39.206Z,15.30
2022-10-24T21:06:13.597Z,15.30
2022-10-24T21:08:40.518Z,15.30
2022-10-24T21:11:07.897Z,15.30
2022-10-24T21:13:34.822Z,15.20
2022-10-24T21:16:02.166Z,15.20
2022-10-24T21:18:29.098Z,15.20
2022-10-24T21:20:56.018Z,15.20
2022-10-24T21:23:22.980Z,15.20
2022-10-24T21:25:49.898Z,15.10
2022-10-24T21:28:16.815Z,15.10
2022-10-24T21:30:43.747Z,15.10
2022-10-24T21:33:10.748Z,15.10
2022-10-24T21:35:38.394Z,15.10
2022-10-24T21:38:05.354Z,15.10
2022-10-24T21:40:32.320Z,15.10
2022-10-24T21:42:59.955Z,15.00
2022-10-24T21:45:26.910Z,15.00
2022-10-24T21:47:53.846Z,15.10
2022-10-24T21:50:20.794Z,15.10
2022-10-24T21:52:47.930Z,15.10
2022-10-24T21:55:15.137Z,15.10
2022-10-24T21:57:42.087Z,15.20
2022-10-24T22:00:09.442Z,15.10
2022-10-24T22:02:36.490Z,15.10
2022-10-24T22:05:03.557Z,15.00
2022-10-24T22:07:30.489Z,15.00
2022-10-24T22:09:57.449Z,15.00
2022-10-24T22:12:24.447Z,15.00
2022-10-24T22:14:51.364Z,15.00
2022-10-24T22:17:18.310Z,15.00
2022-10-24T22:19:45.267Z,15.00
2022-10-24T22:22:12.190Z,15.00
2022-10-24T22:24:39.123Z,15.00
2022-10-24T22:27:06.137Z,15.00
2022-10-24T22:29:33.086Z,15.00
2022-10-24T22:32:00.131Z,15.00
2022-10-24T22:34:27.323Z,15.00
2022-10-24T22:37:00.380Z,15.10
2022-10-24T22:39:27.816Z,15.10
2022-10-24T22:41:54.917Z,15.10
2022-10-24T22:44:22.299Z,15.00
2022-10-24T22:46:55.141Z,15.00
2022-10-24T22:49:31.790Z,14.90
2022-10-24T22:51:58.897Z,14.90
2022-10-24T22:54:29.573Z,14.80
2022-10-24T22:56:56.677Z,14.80
2022-10-24T22:59:23.765Z,14.80
